TimeMDT,TemperatureF,Dew PointF,Humidity,Sea Level PressureIn,VisibilityMPH,Wind Direction,Wind SpeedMPH,Gust SpeedMPH,PrecipitationIn,Events,Conditions,WindDirDegrees,DateUTC
12:53 AM,37.9,28.0,68,30.28,10.0,South,3.5,-,N/A,,Clear,170,2011-10-18 06:53:00
1:53 AM,34.0,27.0,75,30.30,10.0,ESE,4.6,-,N/A,,Clear,110,2011-10-18 07:53:00
2:53 AM,34.0,27.0,75,30.31,10.0,ESE,3.5,-,N/A,,Clear,110,2011-10-18 08:53:00
3:53 AM,33.1,26.1,75,30.32,10.0,Calm,Calm,-,N/A,,Clear,0,2011-10-18 09:53:00
4:53 AM,30.9,26.1,82,30.35,10.0,East,6.9,-,N/A,,Partly Cloudy,100,2011-10-18 10:53:00
5:53 AM,30.0,25.0,82,30.38,10.0,East,3.5,-,N/A,,Clear,90,2011-10-18 11:53:00
6:53 AM,28.9,24.1,82,30.41,10.0,Calm,Calm,-,N/A,,Clear,0,2011-10-18 12:53:00
7:53 AM,30.0,25.0,82,30.43,10.0,Calm,Calm,-,N/A,,Clear,0,2011-10-18 13:53:00
8:53 AM,34.0,27.0,75,30.45,10.0,ESE,3.5,-,N/A,,Clear,110,2011-10-18 14:53:00
9:53 AM,41.0,27.0,57,30.43,10.0,East,3.5,-,N/A,,Clear,90,2011-10-18 15:53:00
10:53 AM,48.9,28.0,44,30.39,10.0,Calm,Calm,-,N/A,,Clear,0,2011-10-18 16:53:00
11:53 AM,51.1,24.1,35,30.38,10.0,Calm,Calm,-,N/A,,Clear,0,2011-10-18 17:53:00
12:53 PM,55.0,21.0,27,30.32,10.0,Calm,Calm,-,N/A,,Clear,0,2011-10-18 18:53:00
1:53 PM,57.9,21.0,24,30.29,10.0,Calm,Calm,-,N/A,,Clear,0,2011-10-18 19:53:00
2:53 PM,60.1,19.9,21,30.27,10.0,Calm,Calm,-,N/A,,Clear,0,2011-10-18 20:53:00
3:53 PM,61.0,21.0,21,30.25,10.0,WSW,6.9,-,N/A,,Clear,250,2011-10-18 21:53:00
4:53 PM,62.1,18.0,18,30.24,10.0,West,6.9,-,N/A,,Clear,270,2011-10-18 22:53:00
5:53 PM,59.0,17.1,20,30.25,10.0,NW,9.2,-,N/A,,Clear,320,2011-10-18 23:53:00
7:53 PM,51.1,21.9,32,30.30,10.0,WSW,5.8,-,N/A,,Clear,250,2011-10-19 01:53:00
8:53 PM,44.1,23.0,43,30.32,10.0,SE,3.5,-,N/A,,Clear,140,2011-10-19 02:53:00
9:53 PM,41.0,21.9,47,30.32,10.0,ESE,4.6,-,N/A,,Clear,110,2011-10-19 03:53:00
10:53 PM,39.0,23.0,53,30.30,10.0,Calm,Calm,-,N/A,,Clear,0,2011-10-19 04:53:00
11:53 PM,37.9,21.0,51,30.29,10.0,ESE,5.8,-,N/A,,Clear,120,2011-10-19 05:53:00